Time;durP1;ratioP1;P1;durP2;ratioP2;P2;SDS_P1;SDS_P2;PMS_P1;PMS_P2;Temp;Humidity;BMP_temperature;BMP_pressure;BME280_temperature;BME280_humidity;BME280_pressure;Samples;Min_cycle;Max_cycle;Signal;HPM_P1;HPM_P2
2023/12/09 00:01:43;;;;;;;79.37;24.33;;;;;;;-4.10;100.00;100545.25;4188473;28;20333;-66
2023/12/09 00:04:10;;;;;;;73.97;23.53;;;;;;;-3.94;100.00;100556.19;4189577;28;20701;-64
2023/12/09 00:06:37;;;;;;;77.77;22.63;;;;;;;-3.95;100.00;100539.44;4188851;28;20281;-65
2023/12/09 00:09:04;;;;;;;70.10;22.97;;;;;;;-3.90;100.00;100541.94;4182645;28;20233;-64
2023/12/09 00:11:30;;;;;;;70.60;20.50;;;;;;;-3.83;100.00;100540.81;4186442;28;20335;-64
2023/12/09 00:14:03;;;;;;;76.57;22.40;;;;;;;-3.89;100.00;100526.00;4181356;28;20292;-66
2023/12/09 00:16:31;;;;;;;70.50;21.70;;;;;;;-3.93;100.00;100523.56;4188031;28;22254;-65
2023/12/09 00:18:59;;;;;;;75.93;21.43;;;;;;;-4.01;100.00;100521.16;4197021;28;20263;-65
2023/12/09 00:21:27;;;;;;;71.60;22.17;;;;;;;-4.02;100.00;100520.31;4179109;28;20338;-65
2023/12/09 00:23:54;;;;;;;74.93;21.47;;;;;;;-3.96;100.00;100519.22;4192793;28;20229;-66
2023/12/09 00:26:20;;;;;;;67.30;22.43;;;;;;;-3.98;100.00;100516.63;4185614;28;20230;-65
2023/12/09 00:28:47;;;;;;;72.20;23.37;;;;;;;-3.99;100.00;100519.34;4182882;28;22386;-63
2023/12/09 00:31:14;;;;;;;74.37;22.90;;;;;;;-3.96;100.00;100513.91;4184193;28;20278;-52
2023/12/09 00:33:40;;;;;;;79.33;22.43;;;;;;;-3.76;100.00;100509.72;4186161;28;20344;-69
2023/12/09 00:36:08;;;;;;;81.73;22.00;;;;;;;-3.93;100.00;100505.03;4193026;28;20244;-67
2023/12/09 00:38:35;;;;;;;70.00;20.90;;;;;;;-3.89;100.00;100509.28;4190146;28;20235;-68
2023/12/09 00:41:02;;;;;;;72.53;22.00;;;;;;;-3.96;100.00;100507.78;4175717;28;20233;-67
2023/12/09 00:43:29;;;;;;;71.93;22.37;;;;;;;-3.86;100.00;100499.47;4183609;28;20252;-69
2023/12/09 00:45:55;;;;;;;72.47;22.73;;;;;;;-4.03;100.00;100507.13;4201590;28;20687;-71
2023/12/09 00:48:22;;;;;;;77.03;23.37;;;;;;;-4.00;100.00;100514.97;4183585;28;20244;-68
2023/12/09 00:50:49;;;;;;;77.27;21.03;;;;;;;-3.95;100.00;100509.50;4180960;28;22877;-69
2023/12/09 00:53:15;;;;;;;73.63;21.80;;;;;;;-3.89;100.00;100507.50;4184262;28;20279;-66
2023/12/09 00:55:42;;;;;;;86.80;23.43;;;;;;;-3.89;100.00;100496.91;4184501;28;21183;-68
2023/12/09 00:58:09;;;;;;;78.50;22.40;;;;;;;-3.99;100.00;100495.53;4192639;28;26471;-66
2023/12/09 01:00:36;;;;;;;79.50;23.03;;;;;;;-3.92;100.00;100496.16;4181047;28;20315;-66
2023/12/09 01:03:02;;;;;;;76.60;23.70;;;;;;;-3.94;100.00;100493.59;4179938;28;20367;-65
2023/12/09 01:05:29;;;;;;;84.23;22.50;;;;;;;-3.78;100.00;100499.22;4188394;28;20253;-65
2023/12/09 01:07:56;;;;;;;76.07;22.07;;;;;;;-3.82;100.00;100501.09;4185936;28;20697;-68
2023/12/09 01:10:23;;;;;;;72.13;21.90;;;;;;;-3.72;100.00;100491.06;4194570;28;20245;-65
2023/12/09 01:12:50;;;;;;;81.50;23.53;;;;;;;-3.71;100.00;100498.06;4182600;28;20309;-68
2023/12/09 01:15:17;;;;;;;75.53;22.27;;;;;;;-3.75;100.00;100485.84;4188011;28;20238;-66
2023/12/09 01:17:43;;;;;;;77.40;23.93;;;;;;;-3.85;100.00;100482.69;4188646;28;20451;-66
2023/12/09 01:20:10;;;;;;;74.50;22.83;;;;;;;-3.90;100.00;100478.47;4185512;28;20403;-67
2023/12/09 01:22:37;;;;;;;76.20;24.70;;;;;;;-3.96;100.00;100476.91;4183587;28;20705;-70
2023/12/09 01:25:05;;;;;;;79.60;23.63;;;;;;;-3.97;100.00;100475.19;4183464;28;21205;-66
2023/12/09 01:27:31;;;;;;;92.07;25.80;;;;;;;-4.01;100.00;100479.72;4178610;28;22812;-68
2023/12/09 01:29:58;;;;;;;90.47;25.70;;;;;;;-3.98;100.00;100474.31;4178804;28;20414;-67
2023/12/09 01:32:25;;;;;;;90.50;26.67;;;;;;;-3.93;100.00;100478.59;4192214;28;21550;-68
2023/12/09 01:34:52;;;;;;;98.93;28.63;;;;;;;-3.89;100.00;100481.06;4177988;28;20249;-65
2023/12/09 01:37:19;;;;;;;101.13;27.13;;;;;;;-3.87;100.00;100476.59;4175788;28;20344;-66
2023/12/09 01:39:46;;;;;;;110.63;29.23;;;;;;;-3.96;100.00;100478.69;4187552;28;20225;-66
2023/12/09 01:42:14;;;;;;;104.17;28.47;;;;;;;-3.99;100.00;100469.94;4187449;28;20237;-67
2023/12/09 01:44:40;;;;;;;106.57;29.07;;;;;;;-3.95;100.00;100473.34;4183876;28;21542;-67
2023/12/09 01:47:07;;;;;;;111.03;29.40;;;;;;;-3.93;100.00;100478.59;4201207;28;20309;-65
2023/12/09 01:49:35;;;;;;;93.97;27.40;;;;;;;-3.88;100.00;100485.44;4185788;28;20271;-67
2023/12/09 01:52:03;;;;;;;115.73;30.57;;;;;;;-4.03;100.00;100488.59;4181465;28;21089;-69
2023/12/09 01:54:30;;;;;;;129.83;30.83;;;;;;;-4.10;100.00;100479.16;4188731;28;21374;-69
2023/12/09 01:56:58;;;;;;;126.10;31.73;;;;;;;-4.07;100.00;100479.06;4184726;28;21140;-69
2023/12/09 01:59:25;;;;;;;125.83;32.03;;;;;;;-4.10;100.00;100487.97;4183458;28;21596;-66
2023/12/09 02:01:52;;;;;;;121.77;30.63;;;;;;;-4.05;100.00;100486.03;4182270;28;20339;-67
2023/12/09 02:04:19;;;;;;;119.93;30.67;;;;;;;-4.05;100.00;100482.53;4198756;28;20735;-67
2023/12/09 02:06:46;;;;;;;113.77;31.03;;;;;;;-4.07;100.00;100487.00;4187605;28;20235;-67
2023/12/09 02:09:12;;;;;;;130.17;33.40;;;;;;;-4.10;100.00;100476.50;4184403;28;25542;-68
2023/12/09 02:11:51;;;;;;;124.87;31.63;;;;;;;-4.19;100.00;100467.13;4181354;28;20419;-66
2023/12/09 02:14:27;;;;;;;151.47;33.40;;;;;;;-4.19;100.00;100465.34;4185251;28;25812;-66
2023/12/09 02:17:08;;;;;;;143.67;31.90;;;;;;;-4.18;100.00;100468.88;4184418;28;20238;-67
2023/12/09 02:19:35;;;;;;;153.90;33.80;;;;;;;-4.24;100.00;100459.34;4174714;28;20249;-66
2023/12/09 02:22:05;;;;;;;146.93;33.33;;;;;;;-4.25;100.00;100457.63;4189752;28;20237;-65
2023/12/09 02:24:33;;;;;;;129.70;32.73;;;;;;;-4.27;100.00;100445.38;4184115;28;21531;-66
2023/12/09 02:27:36;;;;;;;149.33;32.70;;;;;;;-4.32;100.00;100442.91;4179884;28;21234;-67
2023/12/09 02:30:17;;;;;;;140.83;31.33;;;;;;;-4.25;100.00;100462.06;4172870;28;20449;-66
2023/12/09 02:32:45;;;;;;;157.37;34.13;;;;;;;-4.24;100.00;100466.44;4180661;28;20699;-67
2023/12/09 02:35:14;;;;;;;152.17;34.67;;;;;;;-4.23;100.00;100457.59;4197340;28;20293;-66
2023/12/09 02:37:42;;;;;;;161.73;34.83;;;;;;;-4.26;100.00;100457.69;4190282;28;20240;-67
2023/12/09 02:40:11;;;;;;;167.77;34.60;;;;;;;-4.30;100.00;100446.34;4184325;28;20608;-66
2023/12/09 02:42:38;;;;;;;173.27;34.17;;;;;;;-4.31;100.00;100444.63;4183832;28;20245;-65
2023/12/09 02:45:06;;;;;;;175.93;34.17;;;;;;;-4.31;100.00;100457.84;4182548;28;20335;-67
2023/12/09 02:47:34;;;;;;;159.60;33.53;;;;;;;-4.29;100.00;100458.66;4181623;28;20330;-67
2023/12/09 02:50:01;;;;;;;167.23;35.37;;;;;;;-4.28;100.00;100454.22;4192398;28;20873;-67
2023/12/09 02:52:28;;;;;;;154.90;33.37;;;;;;;-4.23;100.00;100449.66;4171110;28;21805;-64
2023/12/09 02:54:55;;;;;;;171.27;34.77;;;;;;;-4.26;100.00;100447.97;4190876;28;20646;-67
2023/12/09 02:57:22;;;;;;;157.80;32.50;;;;;;;-4.26;100.00;100458.53;4186518;28;20317;-65
2023/12/09 02:59:48;;;;;;;188.30;35.43;;;;;;;-4.21;100.00;100458.38;4183618;28;20322;-66
2023/12/09 03:02:15;;;;;;;155.67;33.40;;;;;;;-4.18;100.00;100466.22;4183078;28;20331;-67
2023/12/09 03:04:42;;;;;;;152.67;34.50;;;;;;;-4.17;100.00;100475.88;4182380;28;21472;-66
2023/12/09 03:07:09;;;;;;;140.27;32.10;;;;;;;-4.03;100.00;100462.16;4187762;28;20865;-65
2023/12/09 03:09:36;;;;;;;165.00;34.90;;;;;;;-4.11;100.00;100454.50;4187558;28;20239;-65
2023/12/09 03:12:03;;;;;;;148.43;33.70;;;;;;;-4.14;100.00;100462.53;4187827;28;20324;-68
2023/12/09 03:14:30;;;;;;;158.67;33.77;;;;;;;-4.10;100.00;100455.38;4192009;28;20260;-66
2023/12/09 03:16:56;;;;;;;148.87;30.93;;;;;;;-4.06;100.00;100454.34;4191692;28;20238;-65
2023/12/09 03:19:23;;;;;;;153.83;32.77;;;;;;;-4.05;100.00;100453.44;4188122;28;21846;-66
2023/12/09 03:21:50;;;;;;;145.33;33.20;;;;;;;-4.08;100.00;100453.53;4195700;28;20240;-64
2023/12/09 03:24:16;;;;;;;153.07;34.23;;;;;;;-4.06;100.00;100459.66;4187918;28;20651;-66
2023/12/09 03:26:43;;;;;;;151.60;31.87;;;;;;;-4.02;100.00;100455.97;4184979;28;20298;-65
2023/12/09 03:29:10;;;;;;;147.97;33.63;;;;;;;-3.96;100.00;100447.81;4180836;28;20299;-66
2023/12/09 03:31:41;;;;;;;150.03;32.47;;;;;;;-4.03;100.00;100447.19;4186615;28;20226;-67
2023/12/09 03:34:07;;;;;;;152.50;30.47;;;;;;;-4.03;100.00;100455.13;4188482;28;21407;-65
2023/12/09 03:36:34;;;;;;;148.23;32.57;;;;;;;-3.95;100.00;100444.25;4186085;28;20344;-65
2023/12/09 03:39:01;;;;;;;153.47;32.47;;;;;;;-4.04;100.00;100441.97;4187023;28;23332;-67
2023/12/09 03:41:28;;;;;;;154.83;33.70;;;;;;;-4.07;100.00;100440.25;4184235;28;20238;-66
2023/12/09 03:43:54;;;;;;;159.27;33.33;;;;;;;-4.10;100.00;100442.16;4175829;28;22992;-66
2023/12/09 03:46:22;;;;;;;153.10;33.00;;;;;;;-4.05;100.00;100451.66;4182241;28;21240;-67
2023/12/09 03:48:48;;;;;;;157.10;31.40;;;;;;;-3.85;100.00;100448.31;4194040;28;20288;-68
2023/12/09 03:51:15;;;;;;;169.13;34.20;;;;;;;-3.86;100.00;100453.66;4185687;28;20239;-66
2023/12/09 03:53:42;;;;;;;138.33;31.67;;;;;;;-3.85;100.00;100450.94;4189578;28;20304;-68
2023/12/09 03:56:13;;;;;;;161.47;32.50;;;;;;;-3.95;100.00;100454.84;4186299;28;20437;-65
2023/12/09 03:58:39;;;;;;;162.03;33.27;;;;;;;-4.01;100.00;100457.69;4189277;28;22419;-66
2023/12/09 04:01:06;;;;;;;158.23;30.70;;;;;;;-3.95;100.00;100453.97;4185312;28;21540;-68
2023/12/09 04:03:34;;;;;;;143.80;30.33;;;;;;;-3.95;100.00;100457.47;4184949;28;25389;-67
2023/12/09 04:06:02;;;;;;;143.07;30.33;;;;;;;-3.89;100.00;100451.97;4177690;28;20236;-65
2023/12/09 04:08:29;;;;;;;152.93;30.87;;;;;;;-3.79;100.00;100456.94;4194700;28;21082;-64
2023/12/09 04:10:56;;;;;;;151.80;32.40;;;;;;;-3.85;100.00;100455.34;4190710;28;23158;-66
2023/12/09 04:13:22;;;;;;;158.77;32.87;;;;;;;-3.87;100.00;100449.28;4199886;28;20256;-64
2023/12/09 04:15:49;;;;;;;146.00;32.17;;;;;;;-3.94;100.00;100450.41;4168873;28;20425;-68
2023/12/09 04:18:17;;;;;;;146.37;32.07;;;;;;;-4.00;100.00;100449.69;4189610;28;21199;-67
2023/12/09 04:20:44;;;;;;;161.10;32.70;;;;;;;-3.92;100.00;100451.22;4179601;28;21197;-66
2023/12/09 04:23:10;;;;;;;149.33;30.63;;;;;;;-3.96;100.00;100457.53;4183610;28;23666;-66
2023/12/09 04:25:37;;;;;;;155.57;33.33;;;;;;;-3.97;100.00;100456.69;4175955;28;20285;-64
2023/12/09 04:28:05;;;;;;;162.53;31.87;;;;;;;-3.93;100.00;100452.16;4178936;28;22221;-67
2023/12/09 04:30:31;;;;;;;140.83;32.17;;;;;;;-3.90;100.00;100437.03;4187237;28;20222;-67
2023/12/09 04:32:58;;;;;;;140.43;31.27;;;;;;;-3.99;100.00;100429.44;4191937;28;20277;-66
2023/12/09 04:35:25;;;;;;;157.47;33.23;;;;;;;-3.98;100.00;100428.50;4180286;28;20370;-67
2023/12/09 04:37:51;;;;;;;167.23;32.73;;;;;;;-4.01;100.00;100428.59;4188846;28;20311;-66
2023/12/09 04:40:18;;;;;;;156.87;34.63;;;;;;;-4.01;100.00;100418.03;4181040;28;20279;-65
2023/12/09 04:42:45;;;;;;;133.13;30.97;;;;;;;-4.07;100.00;100416.47;4173978;28;21130;-66
2023/12/09 04:45:11;;;;;;;161.17;30.27;;;;;;;-3.99;100.00;100421.50;4188589;28;20240;-65
2023/12/09 04:47:38;;;;;;;145.50;30.00;;;;;;;-3.95;100.00;100407.22;4175657;28;20260;-66
2023/12/09 04:50:08;;;;;;;147.23;32.27;;;;;;;-3.90;100.00;100405.31;4188505;28;20313;-65
2023/12/09 04:52:38;;;;;;;149.93;31.60;;;;;;;-3.89;100.00;100412.28;4170050;28;20242;-67
2023/12/09 04:55:05;;;;;;;131.20;30.63;;;;;;;-3.87;100.00;100413.09;4195472;28;21684;-67
2023/12/09 04:57:32;;;;;;;148.70;31.47;;;;;;;-3.77;100.00;100413.63;4169681;28;20239;-66
2023/12/09 05:00:03;;;;;;;145.63;32.90;;;;;;;-3.87;100.00;100404.31;4182590;28;20827;-67
2023/12/09 05:02:30;;;;;;;153.33;32.67;;;;;;;-3.96;100.00;100402.00;4186370;28;21828;-66
2023/12/09 05:04:56;;;;;;;158.80;33.27;;;;;;;-3.96;100.00;100389.63;4190573;28;22154;-66
2023/12/09 05:07:26;;;;;;;155.90;30.73;;;;;;;-3.87;100.00;100384.00;4174384;28;20688;-67
2023/12/09 05:09:52;;;;;;;138.77;30.67;;;;;;;-3.88;100.00;100390.22;4187161;28;20369;-64
2023/12/09 05:12:19;;;;;;;157.43;30.53;;;;;;;-3.80;100.00;100394.34;4188017;28;20252;-65
2023/12/09 05:14:46;;;;;;;144.73;29.43;;;;;;;-3.89;100.00;100392.94;4186245;28;21734;-65
2023/12/09 05:17:13;;;;;;;139.77;31.53;;;;;;;-3.93;100.00;100389.53;4194212;28;23625;-68
2023/12/09 05:19:40;;;;;;;141.00;31.07;;;;;;;-3.87;100.00;100388.47;4192351;28;20359;-67
2023/12/09 05:22:07;;;;;;;133.73;30.50;;;;;;;-3.94;100.00;100385.16;4186797;28;20244;-65
2023/12/09 05:24:34;;;;;;;147.47;32.33;;;;;;;-3.96;100.00;100388.78;4184600;28;20233;-68
2023/12/09 05:27:01;;;;;;;136.17;30.67;;;;;;;-3.97;100.00;100390.56;4187526;28;20926;-68
2023/12/09 05:29:27;;;;;;;138.43;30.13;;;;;;;-3.88;100.00;100392.00;4184702;28;20375;-68
2023/12/09 05:31:54;;;;;;;138.63;31.27;;;;;;;-3.92;100.00;100400.97;4183372;28;20307;-68
2023/12/09 05:34:20;;;;;;;130.80;29.47;;;;;;;-3.94;100.00;100398.38;4189127;28;26198;-67
2023/12/09 05:36:47;;;;;;;154.43;32.87;;;;;;;-3.99;100.00;100389.75;4186640;28;20349;-67
2023/12/09 05:39:14;;;;;;;155.10;32.63;;;;;;;-3.98;100.00;100396.78;4185744;28;20249;-66
2023/12/09 05:41:42;;;;;;;157.33;32.57;;;;;;;-4.00;100.00;100395.97;4182414;28;20236;-66
2023/12/09 05:44:09;;;;;;;130.70;30.53;;;;;;;-3.95;100.00;100394.00;4186812;28;20289;-66
2023/12/09 05:46:36;;;;;;;141.33;30.63;;;;;;;-3.93;100.00;100393.97;4187994;28;26420;-68
2023/12/09 05:49:03;;;;;;;148.07;30.53;;;;;;;-3.98;100.00;100383.56;4180794;28;20229;-67
2023/12/09 05:51:30;;;;;;;128.47;29.23;;;;;;;-3.96;100.00;100384.34;4184008;28;21213;-68
2023/12/09 05:53:56;;;;;;;151.40;32.60;;;;;;;-3.95;100.00;100387.88;4188599;28;21786;-69
2023/12/09 05:56:23;;;;;;;145.30;31.27;;;;;;;-4.01;100.00;100387.19;4185157;28;21765;-67
2023/12/09 05:58:50;;;;;;;134.50;30.50;;;;;;;-3.99;100.00;100380.03;4184880;28;20281;-65
2023/12/09 06:01:16;;;;;;;154.17;31.43;;;;;;;-3.97;100.00;100382.66;4184994;28;20242;-66
2023/12/09 06:03:43;;;;;;;153.00;31.80;;;;;;;-4.03;100.00;100377.56;4186725;28;21403;-67
2023/12/09 06:06:11;;;;;;;130.93;30.80;;;;;;;-4.00;100.00;100377.47;4196579;28;20532;-67
2023/12/09 06:08:37;;;;;;;130.30;29.50;;;;;;;-4.00;100.00;100366.88;4187712;28;27260;-66
2023/12/09 06:11:05;;;;;;;125.63;31.83;;;;;;;-3.91;100.00;100368.31;4194771;28;21455;-66
2023/12/09 06:13:32;;;;;;;145.53;31.93;;;;;;;-3.95;100.00;100361.44;4189633;28;20239;-68
2023/12/09 06:15:58;;;;;;;134.77;32.13;;;;;;;-3.86;100.00;100359.28;4196677;28;20292;-67
2023/12/09 06:18:25;;;;;;;149.90;31.07;;;;;;;-3.94;100.00;100363.16;4193512;28;20608;-68
2023/12/09 06:20:52;;;;;;;129.27;28.70;;;;;;;-3.91;100.00;100361.25;4200992;28;20232;-66
2023/12/09 06:23:19;;;;;;;137.30;30.13;;;;;;;-3.95;100.00;100350.84;4181105;28;20313;-67
2023/12/09 06:25:46;;;;;;;137.57;30.77;;;;;;;-3.84;100.00;100356.59;4191693;28;20234;-68
2023/12/09 06:28:13;;;;;;;132.53;29.80;;;;;;;-3.84;100.00;100359.22;4189811;28;20545;-67
2023/12/09 06:30:39;;;;;;;122.80;30.23;;;;;;;-3.86;100.00;100353.16;4192478;28;22025;-67
2023/12/09 06:33:06;;;;;;;125.33;27.67;;;;;;;-3.81;100.00;100353.84;4195578;28;20742;-67
2023/12/09 06:35:33;;;;;;;128.87;28.37;;;;;;;-3.84;100.00;100348.66;4194741;28;20876;-67
2023/12/09 06:37:59;;;;;;;123.57;28.47;;;;;;;-3.77;100.00;100344.84;4192440;28;20751;-68
2023/12/09 06:40:26;;;;;;;133.23;28.50;;;;;;;-3.74;100.00;100349.19;4194771;28;21032;-68
2023/12/09 06:42:53;;;;;;;108.60;25.27;;;;;;;-3.75;100.00;100350.94;4196226;28;21132;-67
2023/12/09 06:45:19;;;;;;;116.77;28.23;;;;;;;-3.79;100.00;100345.84;4187596;28;20242;-68
2023/12/09 06:47:46;;;;;;;122.70;29.17;;;;;;;-3.82;100.00;100357.41;4192714;28;20240;-66
2023/12/09 06:50:13;;;;;;;125.37;28.40;;;;;;;-3.82;100.00;100354.75;4186180;28;20243;-65
2023/12/09 06:52:39;;;;;;;129.53;29.30;;;;;;;-3.76;100.00;100351.88;4195541;28;23460;-68
2023/12/09 06:55:07;;;;;;;119.23;27.17;;;;;;;-3.77;100.00;100349.28;4188271;28;20241;-67
2023/12/09 06:57:36;;;;;;;130.40;29.57;;;;;;;-3.82;100.00;100336.25;4191198;28;25731;-67
2023/12/09 07:00:08;;;;;;;121.47;30.03;;;;;;;-3.79;100.00;100330.84;4187166;28;20240;-70
2023/12/09 07:02:36;;;;;;;124.53;28.73;;;;;;;-3.70;100.00;100340.19;4189045;28;20261;-68
2023/12/09 07:05:22;;;;;;;128.43;29.50;;;;;;;-3.77;100.00;100346.66;4205313;28;21784;-66
2023/12/09 07:07:50;;;;;;;123.43;27.93;;;;;;;-3.74;100.00;100347.38;4192005;28;20233;-68
2023/12/09 07:10:17;;;;;;;117.67;28.83;;;;;;;-3.70;100.00;100343.69;4191443;28;20238;-67
2023/12/09 07:12:44;;;;;;;135.30;28.80;;;;;;;-3.69;100.00;100331.34;4189125;28;20358;-70
2023/12/09 07:15:15;;;;;;;129.83;28.43;;;;;;;-3.67;100.00;100340.09;4193345;28;22057;-68
2023/12/09 07:17:42;;;;;;;126.03;30.43;;;;;;;-3.67;100.00;100335.66;4187070;28;20242;-67
2023/12/09 07:20:09;;;;;;;134.17;30.50;;;;;;;-3.68;100.00;100333.94;4192918;28;20241;-67
2023/12/09 07:22:36;;;;;;;127.43;29.97;;;;;;;-3.67;100.00;100334.81;4189631;28;20281;-68
2023/12/09 07:25:03;;;;;;;138.40;31.33;;;;;;;-3.69;100.00;100344.56;4187777;28;20584;-66
2023/12/09 07:27:30;;;;;;;126.40;29.83;;;;;;;-3.77;100.00;100322.84;4188233;28;20234;-66
2023/12/09 07:29:56;;;;;;;130.83;30.43;;;;;;;-3.60;100.00;100352.16;4182382;28;20329;-67
2023/12/09 07:32:23;;;;;;;123.93;29.87;;;;;;;-3.63;100.00;100356.72;4187979;28;21625;-68
2023/12/09 07:34:51;;;;;;;134.83;31.03;;;;;;;-3.62;100.00;100354.00;4186184;28;20248;-67
2023/12/09 07:37:22;;;;;;;134.67;29.23;;;;;;;-3.58;100.00;100360.03;4185434;28;20233;-69
2023/12/09 07:39:49;;;;;;;138.83;31.23;;;;;;;-3.60;100.00;100352.16;4183188;28;20240;-66
2023/12/09 07:42:17;;;;;;;126.83;29.33;;;;;;;-3.55;100.00;100350.19;4189178;28;21004;-67
2023/12/09 07:44:44;;;;;;;125.27;29.50;;;;;;;-3.41;100.00;100343.50;4180321;28;21398;-68
2023/12/09 07:47:11;;;;;;;129.50;30.17;;;;;;;-3.52;100.00;100342.16;4185127;28;20243;-67
2023/12/09 07:49:37;;;;;;;132.93;31.87;;;;;;;-3.56;100.00;100345.81;4193131;28;20285;-66
2023/12/09 07:52:05;;;;;;;138.03;31.83;;;;;;;-3.48;100.00;100345.53;4191210;28;20245;-67
2023/12/09 07:54:32;;;;;;;125.43;32.57;;;;;;;-3.44;100.00;100343.63;4188971;28;20242;-68
2023/12/09 07:56:59;;;;;;;133.57;32.07;;;;;;;-3.42;100.00;100353.22;4194591;28;20275;-66
2023/12/09 07:59:25;;;;;;;122.10;29.13;;;;;;;-3.33;100.00;100352.00;4197490;28;20419;-67
2023/12/09 08:01:52;;;;;;;128.20;29.53;;;;;;;-3.32;100.00;100347.56;4184346;28;20330;-68
2023/12/09 08:04:19;;;;;;;130.30;30.93;;;;;;;-3.37;100.00;100345.13;4193405;28;20255;-67
2023/12/09 08:06:46;;;;;;;129.57;31.37;;;;;;;-3.23;100.00;100355.13;4207978;28;23247;-68
2023/12/09 08:09:13;;;;;;;135.70;29.07;;;;;;;-3.25;100.00;100351.69;4188752;28;20303;-66
2023/12/09 08:11:40;;;;;;;130.67;30.07;;;;;;;-3.40;100.00;100334.63;4185353;28;20261;-67
2023/12/09 08:14:07;;;;;;;147.07;32.40;;;;;;;-3.23;100.00;100342.78;4186244;28;20241;-68
2023/12/09 08:16:36;;;;;;;134.17;30.90;;;;;;;-3.31;100.00;100336.03;4184181;28;20408;-68
2023/12/09 08:19:03;;;;;;;127.93;31.30;;;;;;;-3.33;100.00;100343.19;4191655;28;20237;-69
2023/12/09 08:21:35;;;;;;;138.40;30.93;;;;;;;-3.26;100.00;100332.28;4183387;28;20295;-70
2023/12/09 08:24:02;;;;;;;143.23;32.03;;;;;;;-3.37;100.00;100329.22;4197146;28;22813;-69
2023/12/09 08:26:29;;;;;;;148.17;33.70;;;;;;;-3.21;100.00;100337.41;4195564;28;20427;-68
2023/12/09 08:28:56;;;;;;;133.80;31.57;;;;;;;-3.25;100.00;100328.72;4196963;28;20308;-69
2023/12/09 08:31:23;;;;;;;135.13;31.60;;;;;;;-3.23;100.00;100332.19;4179943;28;20237;-69
2023/12/09 08:33:50;;;;;;;130.00;30.17;;;;;;;-3.25;100.00;100327.88;4173749;28;20312;-68
2023/12/09 08:36:17;;;;;;;152.33;33.50;;;;;;;-3.19;100.00;100328.47;4188101;28;20420;-71
2023/12/09 08:38:44;;;;;;;142.93;31.93;;;;;;;-3.08;100.00;100343.06;4192434;28;20452;-67
2023/12/09 08:41:10;;;;;;;147.57;35.70;;;;;;;-3.22;100.00;100331.25;4201919;28;20246;-68
2023/12/09 08:43:37;;;;;;;135.03;33.33;;;;;;;-3.27;100.00;100332.38;4184980;28;20232;-68
2023/12/09 08:46:04;;;;;;;146.90;32.43;;;;;;;-3.21;100.00;100326.81;4191819;28;20240;-70
2023/12/09 08:48:30;;;;;;;152.70;35.03;;;;;;;-3.03;100.00;100333.13;4178208;28;20234;-70
2023/12/09 08:50:57;;;;;;;143.10;33.57;;;;;;;-3.16;100.00;100332.78;4192012;28;20230;-69
2023/12/09 08:53:24;;;;;;;166.60;34.67;;;;;;;-3.03;100.00;100327.84;4170128;28;21157;-70
2023/12/09 08:55:51;;;;;;;151.27;34.77;;;;;;;-3.06;100.00;100317.41;4186092;28;22886;-70
2023/12/09 08:58:18;;;;;;;154.33;33.33;;;;;;;-3.04;100.00;100323.47;4186540;28;21572;-71
2023/12/09 09:00:45;;;;;;;138.43;33.50;;;;;;;-3.02;100.00;100306.59;4201594;28;20292;-71
2023/12/09 09:03:14;;;;;;;149.13;32.93;;;;;;;-2.92;100.00;100304.44;4180426;28;20241;-73
2023/12/09 09:05:42;;;;;;;135.13;32.30;;;;;;;-2.84;100.00;100297.94;4188871;28;21001;-71
2023/12/09 09:08:09;;;;;;;140.53;32.70;;;;;;;-2.80;100.00;100294.22;4203493;28;21170;-70
2023/12/09 09:10:36;;;;;;;142.40;34.97;;;;;;;-2.77;100.00;100291.47;4189816;28;20626;-71
2023/12/09 09:13:02;;;;;;;147.33;34.03;;;;;;;-2.75;100.00;100279.00;4192146;28;20264;-70
2023/12/09 09:15:30;;;;;;;138.57;33.70;;;;;;;-2.71;100.00;100291.19;4185386;28;22337;-69
2023/12/09 09:17:57;;;;;;;141.00;34.53;;;;;;;-2.69;100.00;100277.88;4177428;28;22379;-69
2023/12/09 09:20:24;;;;;;;143.67;33.07;;;;;;;-2.64;100.00;100265.31;4182498;28;20237;-71
2023/12/09 09:22:51;;;;;;;134.83;33.77;;;;;;;-2.71;100.00;100273.50;4192747;28;20288;-74
2023/12/09 09:25:17;;;;;;;148.00;32.97;;;;;;;-2.55;100.00;100278.13;4183602;28;20249;-70
2023/12/09 09:27:44;;;;;;;150.00;34.13;;;;;;;-2.63;100.00;100267.88;4180936;28;20348;-70
2023/12/09 09:30:13;;;;;;;137.33;34.97;;;;;;;-2.51;100.00;100260.28;4191060;28;20632;-71
2023/12/09 09:32:40;;;;;;;135.20;32.40;;;;;;;-2.45;100.00;100255.59;4191030;28;20243;-70
2023/12/09 09:35:08;;;;;;;154.57;40.67;;;;;;;-2.49;100.00;100258.44;4182983;28;20848;-69
2023/12/09 09:37:36;;;;;;;126.37;32.27;;;;;;;-2.51;100.00;100255.00;4174733;28;22222;-68
2023/12/09 09:40:04;;;;;;;135.57;32.13;;;;;;;-2.40;100.00;100248.28;4188394;28;20245;-68
2023/12/09 09:42:43;;;;;;;136.40;32.93;;;;;;;-2.34;100.00;100246.31;4193785;28;20242;-69
2023/12/09 09:45:30;;;;;;;133.60;32.70;;;;;;;-2.40;100.00;100245.63;4184395;28;21806;-69
2023/12/09 09:48:04;;;;;;;134.40;31.73;;;;;;;-2.35;100.00;100240.13;4188315;28;21249;-65
2023/12/09 09:50:43;;;;;;;120.47;31.50;;;;;;;-2.17;100.00;100241.06;4185699;28;21089;-69
2023/12/09 09:53:12;;;;;;;135.30;33.17;;;;;;;-2.16;100.00;100241.94;4187090;28;20233;-68
2023/12/09 09:55:44;;;;;;;129.90;30.83;;;;;;;-2.23;100.00;100234.25;4181054;28;20939;-68
2023/12/09 09:58:12;;;;;;;115.73;29.27;;;;;;;-2.12;100.00;100235.56;4190029;28;20229;-66
2023/12/09 10:00:40;;;;;;;129.97;30.50;;;;;;;-2.28;100.00;100236.25;4190419;28;20870;-70
2023/12/09 10:03:06;;;;;;;128.20;32.10;;;;;;;-2.08;100.00;100232.69;4179880;28;20334;-69
2023/12/09 10:05:34;;;;;;;118.77;31.57;;;;;;;-2.21;100.00;100226.25;4186174;28;20309;-69
2023/12/09 10:08:01;;;;;;;112.47;29.97;;;;;;;-2.10;100.00;100220.44;4186328;28;22917;-67
2023/12/09 10:10:29;;;;;;;107.37;29.13;;;;;;;-2.09;100.00;100224.81;4181036;28;20364;-70
2023/12/09 10:12:56;;;;;;;138.67;32.03;;;;;;;-2.11;100.00;100216.91;4191971;28;20902;-70
2023/12/09 10:15:23;;;;;;;127.67;33.10;;;;;;;-2.19;100.00;100213.75;4191207;28;20295;-68
2023/12/09 10:17:50;;;;;;;124.33;31.23;;;;;;;-2.10;100.00;100218.63;4188132;28;20344;-69
2023/12/09 10:20:17;;;;;;;111.33;31.53;;;;;;;-2.07;100.00;100207.88;4184781;28;20250;-70
2023/12/09 10:22:45;;;;;;;115.80;31.07;;;;;;;-1.99;100.00;100219.94;4182187;28;22663;-70
2023/12/09 10:25:20;;;;;;;120.77;31.77;;;;;;;-1.84;100.00;100220.97;4184427;28;20455;-69
2023/12/09 10:27:47;;;;;;;118.27;29.10;;;;;;;-1.84;100.00;100215.66;4180209;28;21007;-69
2023/12/09 10:30:16;;;;;;;103.93;30.57;;;;;;;-1.91;100.00;100213.31;4211102;28;20241;-69
2023/12/09 10:32:42;;;;;;;120.07;30.03;;;;;;;-1.88;100.00;100214.97;4185979;28;20229;-68
2023/12/09 10:35:09;;;;;;;121.87;31.53;;;;;;;-1.95;100.00;100208.22;4188790;28;20716;-70
2023/12/09 10:37:36;;;;;;;127.50;30.87;;;;;;;-1.95;100.00;100205.56;4180184;28;20250;-67
2023/12/09 10:40:06;;;;;;;113.97;30.53;;;;;;;-1.87;100.00;100199.91;4182624;28;20234;-68
2023/12/09 10:42:37;;;;;;;118.83;29.87;;;;;;;-1.87;100.00;100203.41;4185039;28;20407;-70
2023/12/09 10:45:05;;;;;;;117.00;31.33;;;;;;;-1.88;100.00;100196.38;4187205;28;20408;-69
2023/12/09 10:47:32;;;;;;;121.20;31.63;;;;;;;-1.93;100.00;100196.59;4186113;28;20239;-75
2023/12/09 10:49:59;;;;;;;121.13;33.37;;;;;;;-1.80;100.00;100194.22;4189584;28;20240;-70
2023/12/09 10:52:26;;;;;;;122.83;32.10;;;;;;;-1.78;100.00;100195.03;4186811;28;21530;-73
2023/12/09 10:54:53;;;;;;;120.70;31.53;;;;;;;-1.88;100.00;100183.13;4192620;28;20271;-73
2023/12/09 10:57:20;;;;;;;127.27;31.77;;;;;;;-1.86;100.00;100186.56;4196883;28;20240;-70